Time;durP1;ratioP1;P1;durP2;ratioP2;P2;SDS_P1;SDS_P2;PMS_P1;PMS_P2;Temp;Humidity;BMP_temperature;BMP_pressure;BME280_temperature;BME280_humidity;BME280_pressure;Samples;Min_cycle;Max_cycle;Signal;HPM_P1;HPM_P2
2022/12/29 01:22:49;;;;;;;3.97;2.33;;;10.10;99.90;;;;;;6212968;22;20526;-93
2022/12/29 01:25:25;;;;;;;3.83;2.47;;;10.10;99.90;;;;;;6205690;22;20020;-93
2022/12/29 01:28:03;;;;;;;2.97;2.28;;;9.90;99.90;;;;;;6256562;22;20038;-93
2022/12/29 01:30:41;;;;;;;2.83;2.25;;;10.10;99.90;;;;;;6258803;22;20053;-92
2022/12/29 01:33:34;;;;;;;3.70;2.20;;;10.10;99.90;;;;;;6259222;22;20026;-92
2022/12/29 01:36:22;;;;;;;3.63;2.53;;;10.10;99.90;;;;;;6262361;22;20019;-90
2022/12/29 01:46:39;;;;;;;3.50;2.50;;;10.10;99.90;;;;;;6309400;22;20014;-93
2022/12/29 01:57:06;;;;;;;;;;;;;;;;;;;;;
2022/12/29 03:38:15;;;;;;;2.97;0.85;;;9.90;99.90;;;;;;6299324;22;20998;-91
2022/12/29 03:41:05;;;;;;;2.45;0.98;;;9.50;99.90;;;;;;6256928;22;20023;-92
2022/12/29 03:43:37;;;;;;;1.10;0.70;;;9.80;99.90;;;;;;6256176;22;20039;-92
2022/12/29 04:27:04;;;;;;;2.47;1.00;;;9.60;99.90;;;;;;6290412;22;20022;-91
2022/12/29 04:29:55;;;;;;;1.52;0.90;;;9.60;99.90;;;;;;6226488;22;20592;-92
2022/12/29 04:40:08;;;;;;;2.92;0.70;;;9.60;99.90;;;;;;6279759;22;20070;-92
2022/12/29 04:43:04;;;;;;;;;;;;;;;;;;;;;
2022/12/29 04:57:02;;;;;;;4.53;0.70;;;9.00;99.90;;;;;;6321181;22;20531;-94
2022/12/29 05:20:42;;;;;;;5.43;1.05;;;9.10;99.90;;;;;;6145599;22;20027;-94
2022/12/29 06:00:19;;;;;;;3.80;1.10;;;8.80;99.90;;;;;;6104952;22;20015;-92
2022/12/29 06:03:08;;;;;;;6.18;1.20;;;8.80;99.90;;;;;;6256035;22;20534;-93
2022/12/29 06:05:55;;;;;;;4.57;1.30;;;8.80;99.90;;;;;;6252280;22;20034;-93
2022/12/29 06:08:42;;;;;;;5.68;1.10;;;8.80;99.90;;;;;;6253716;22;20015;-94
2022/12/29 06:11:29;;;;;;;4.40;1.10;;;8.90;99.90;;;;;;6231175;22;20038;-93
2022/12/29 06:21:23;;;;;;;8.77;1.23;;;8.90;99.90;;;;;;6310388;22;20065;-93
2022/12/29 06:24:33;;;;;;;5.75;1.17;;;9.00;99.90;;;;;;6258585;22;20022;-93
2022/12/29 06:27:15;;;;;;;5.68;1.10;;;9.00;99.90;;;;;;6263234;22;20059;-94
2022/12/29 07:34:48;;;;;;;9.57;1.60;;;8.60;99.90;;;;;;6065496;23;20022;-93
2022/12/29 09:51:27;;;;;;;8.57;1.77;;;8.80;99.90;;;;;;6063713;23;20019;-94
2022/12/29 09:54:19;;;;;;;9.02;1.98;;;8.80;99.90;;;;;;6019855;23;20055;-93
2022/12/29 09:56:52;;;;;;;;;;;8.80;99.90;;;;;;6032578;23;20025;-94
2022/12/29 10:35:43;;;;;;;7.18;2.17;;;8.60;99.90;;;;;;6202582;22;20055;-92
2022/12/29 10:38:51;;;;;;;5.00;1.30;;;8.50;99.90;;;;;;6251043;22;20430;-92
2022/12/29 10:42:18;;;;;;;6.75;1.25;;;8.00;99.90;;;;;;6256339;22;20015;-92
2022/12/29 10:44:46;;;;;;;6.45;1.20;;;8.50;99.90;;;;;;6106984;23;20025;-91
2022/12/29 10:47:39;;;;;;;7.25;1.25;;;8.50;99.90;;;;;;6132428;23;20018;-91
2022/12/29 10:50:08;;;;;;;7.05;1.50;;;8.50;99.90;;;;;;6223862;22;20316;-92
2022/12/29 10:55:35;;;;;;;;;;;;;;;;;;;;;
2022/12/29 10:58:56;;;;;;;;;;;;;;;;;;;;;
2022/12/29 11:05:50;;;;;;;;;;;;;;;;;;;;;
2022/12/29 11:11:48;;;;;;;11.80;2.50;;;8.60;99.90;;;;;;6276561;22;20032;-92
2022/12/29 11:14:43;;;;;;;;;;;;;;;;;;;;;
2022/12/29 11:17:23;;;;;;;10.60;2.30;;;8.70;99.90;;;;;;6248473;22;20015;-93
2022/12/29 11:20:11;;;;;;;10.38;2.10;;;8.80;99.90;;;;;;6225717;22;20019;-90
2022/12/29 11:23:24;;;;;;;;;;;;;;;;;;;;;
2022/12/29 11:26:46;;;;;;;;;;;;;;;;;;;;;
2022/12/29 11:29:23;;;;;;;11.35;1.80;;;8.90;99.90;;;;;;6249305;22;20144;-92
2022/12/29 11:32:13;;;;;;;;;;;;;;;;;;;;;
2022/12/29 11:35:06;;;;;;;13.60;2.80;;;8.90;99.90;;;;;;6270401;22;20067;-91
2022/12/29 11:38:22;;;;;;;;;;;;;;;;;;;;;
2022/12/29 11:45:17;;;;;;;;;;;;;;;;;;;;;
2022/12/29 11:55:44;;;;;;;;;;;;;;;;;;;;;
2022/12/29 11:58:53;;;;;;;;;;;;;;;;;;;;;
2022/12/29 12:05:08;;;;;;;;;;;;;;;;;;;;;
2022/12/29 12:13:28;;;;;;;10.52;2.05;;;9.20;99.90;;;;;;6251676;23;20480;-91
2022/12/29 12:16:22;;;;;;;21.27;4.28;;;9.10;99.90;;;;;;6202808;23;20016;-94
2022/12/29 12:19:00;;;;;;;11.38;2.33;;;9.10;99.90;;;;;;6197717;23;20020;-91
2022/12/29 12:21:48;;;;;;;16.00;3.45;;;9.20;99.90;;;;;;6226427;23;20104;-92
2022/12/29 12:28:19;;;;;;;22.98;5.13;;;9.20;99.90;;;;;;6253668;22;20038;-92
2022/12/29 12:31:47;;;;;;;;;;;;;;;;;;;;;
2022/12/29 13:03:35;;;;;;;10.95;2.25;;;8.30;99.90;;;;;;6266511;22;20585;-92
2022/12/29 13:09:43;;;;;;;;;;;8.60;99.90;;;;;;6275321;22;20074;-95
2022/12/29 13:23:17;;;;;;;6.97;1.33;;;8.80;99.90;;;;;;6170679;22;20023;-91
2022/12/29 13:26:05;;;;;;;6.78;1.23;;;8.20;99.90;;;;;;6261181;22;20023;-94
2022/12/29 13:29:08;;;;;;;47.75;8.52;;;8.30;99.90;;;;;;6262550;22;20119;-91
2022/12/29 13:32:23;;;;;;;;;;;;;;;;;;;;;
2022/12/29 13:39:35;;;;;;;;;;;;;;;;;;;;;
2022/12/29 13:42:56;;;;;;;;;;;;;;;;;;;;;
2022/12/29 13:45:44;;;;;;;;;;;;;;;;;;;;;
2022/12/29 13:48:58;;;;;;;;;;;;;;;;;;;;;
2022/12/29 13:51:57;;;;;;;6.68;1.15;;;8.40;99.90;;;;;;6277264;22;20098;-91
2022/12/29 13:54:41;;;;;;;;;;;;;;;;;;;;;
2022/12/29 14:04:22;;;;;;;;;;;;;;;;;;;;;
2022/12/29 14:10:34;;;;;;;;;;;;;;;;;;;;;
2022/12/29 14:17:23;;;;;;;;;;;;;;;;;;;;;
2022/12/29 14:20:01;;;;;;;5.38;1.17;;;8.40;99.90;;;;;;6242962;22;20464;-91
2022/12/29 14:23:16;;;;;;;4.78;1.38;;;8.40;99.90;;;;;;6231835;22;20019;-92
2022/12/29 14:26:10;;;;;;;4.40;1.10;;;7.70;99.90;;;;;;6184928;23;20020;-91
2022/12/29 14:30:07;;;;;;;;;;;;;;;;;;;;;
2022/12/29 14:32:39;;;;;;;;;;;;;;;;;;;;;
2022/12/29 14:35:53;;;;;;;;;;;;;;;;;;;;;
2022/12/29 14:39:24;;;;;;;;;;;;;;;;;;;;;
2022/12/29 14:43:12;;;;;;;;;;;;;;;;;;;;;
2022/12/29 14:46:28;;;;;;;;;;;;;;;;;;;;;
2022/12/29 14:49:37;;;;;;;6.32;1.15;;;8.70;99.90;;;;;;6251021;23;20070;-92
2022/12/29 14:56:33;;;;;;;;;;;;;;;;;;;;;
2022/12/29 14:59:23;;;;;;;;;;;;;;;;;;;;;
2022/12/29 15:02:41;;;;;;;;;;;;;;;;;;;;;
2022/12/29 15:09:50;;;;;;;;;;;;;;;;;;;;;
2022/12/29 15:13:04;;;;;;;;;;;;;;;;;;;;;
2022/12/29 15:16:08;;;;;;;6.70;1.35;;;7.70;99.90;;;;;;6219409;23;20024;-92
2022/12/29 15:19:24;;;;;;;;;;;;;;;;;;;;;
2022/12/29 15:22:34;;;;;;;6.38;1.98;;;7.60;99.90;;;;;;6131446;23;20051;-91
2022/12/29 15:25:22;;;;;;;9.07;1.40;;;7.60;99.90;;;;;;6084064;23;20057;-91
2022/12/29 15:28:28;;;;;;;8.23;2.03;;;7.20;99.90;;;;;;6102316;23;20041;-92
2022/12/29 15:31:30;;;;;;;7.70;1.52;;;7.60;99.90;;;;;;6084595;23;20055;-92
2022/12/29 15:34:14;;;;;;;10.93;1.70;;;7.50;99.90;;;;;;6190386;23;20530;-91
2022/12/29 15:36:41;;;;;;;10.60;1.73;;;7.50;99.90;;;;;;6194293;23;20020;-92
2022/12/29 15:39:50;;;;;;;6.45;1.40;;;7.40;99.90;;;;;;6194182;23;20047;-92
2022/12/29 15:42:51;;;;;;;5.38;1.30;;;7.40;99.90;;;;;;6077889;23;20481;-93
2022/12/29 15:45:26;;;;;;;6.47;1.77;;;7.30;99.90;;;;;;6126104;23;20020;-92
2022/12/29 15:48:08;;;;;;;5.05;1.20;;;7.60;99.90;;;;;;6195135;23;20087;-92
2022/12/29 15:50:37;;;;;;;5.40;1.58;;;7.30;99.90;;;;;;6194122;23;20020;-92
2022/12/29 15:56:29;;;;;;;7.50;1.58;;;7.30;99.90;;;;;;6206627;23;20085;-91
2022/12/29 15:59:30;;;;;;;7.72;1.23;;;7.40;99.90;;;;;;6196357;23;20123;-92
2022/12/29 16:02:35;;;;;;;7.97;1.20;;;7.30;99.90;;;;;;6196583;23;20023;-92
2022/12/29 16:06:20;;;;;;;5.95;1.42;;;7.30;99.90;;;;;;6199737;23;20046;-91
2022/12/29 16:09:00;;;;;;;10.75;1.30;;;7.30;99.90;;;;;;6190094;23;20021;-89
2022/12/29 16:11:53;;;;;;;8.82;1.08;;;7.20;99.90;;;;;;6167430;23;20017;-91
2022/12/29 16:21:33;;;;;;;6.38;1.10;;;7.30;99.90;;;;;;6217376;23;20039;-92
2022/12/29 16:24:28;;;;;;;7.80;1.98;;;6.70;99.90;;;;;;6210962;22;20074;-90
2022/12/29 16:27:45;;;;;;;8.60;1.75;;;7.40;99.90;;;;;;6232582;22;20028;-90
2022/12/29 16:30:46;;;;;;;8.35;1.58;;;7.50;99.90;;;;;;6229020;22;20025;-92
2022/12/29 16:33:51;;;;;;;7.78;1.45;;;7.50;99.90;;;;;;6250096;22;20023;-92
2022/12/29 16:39:40;;;;;;;4.82;1.42;;;7.40;99.90;;;;;;6296620;22;20027;-90
2022/12/29 16:42:44;;;;;;;6.70;1.35;;;7.40;99.90;;;;;;6261968;22;20022;-91
2022/12/29 16:45:30;;;;;;;;;;;;;;;;;;;;;
2022/12/29 16:48:08;;;;;;;7.32;1.17;;;7.30;99.90;;;;;;6251291;22;20093;-91
2022/12/29 16:50:37;;;;;;;5.18;0.88;;;7.30;99.90;;;;;;6250750;22;20038;-91
2022/12/29 17:00:26;;;;;;;2.25;0.70;;;6.90;99.90;;;;;;6276915;22;20047;-93
2022/12/29 17:03:00;;;;;;;2.90;0.70;;;7.00;99.90;;;;;;6251290;22;20330;-91
2022/12/29 17:08:54;;;;;;;2.65;0.90;;;6.90;99.90;;;;;;6276160;22;20055;-92
2022/12/29 17:14:43;;;;;;;2.65;0.60;;;6.70;99.90;;;;;;6275969;22;20067;-92
2022/12/29 17:17:48;;;;;;;3.55;0.80;;;5.90;99.90;;;;;;6250029;22;20015;-91
2022/12/29 17:23:41;;;;;;;3.25;1.05;;;6.60;99.90;;;;;;6275414;22;20028;-90
2022/12/29 17:29:57;;;;;;;3.03;0.95;;;6.50;99.90;;;;;;6246196;23;20011;-92
2022/12/29 17:32:26;;;;;;;4.10;1.27;;;6.20;99.90;;;;;;6171944;23;20096;-92
2022/12/29 17:35:16;;;;;;;5.38;1.38;;;6.60;99.90;;;;;;6195286;23;20289;-92
2022/12/29 17:37:45;;;;;;;4.55;1.50;;;6.60;99.90;;;;;;6219303;23;20024;-91
2022/12/29 17:40:19;;;;;;;5.10;1.35;;;6.60;99.90;;;;;;6193479;23;20043;-91
2022/12/29 17:42:49;;;;;;;5.47;1.67;;;6.60;99.90;;;;;;6195829;23;20020;-91
2022/12/29 17:45:35;;;;;;;5.38;1.52;;;6.60;99.90;;;;;;6220742;23;20070;-92
2022/12/29 17:48:01;;;;;;;7.72;2.03;;;6.60;99.90;;;;;;6169847;23;20105;-92
2022/12/29 17:53:53;;;;;;;8.30;2.15;;;6.70;99.90;;;;;;6221528;23;20046;-92
2022/12/29 17:56:38;;;;;;;10.48;2.10;;;6.70;99.90;;;;;;6171324;23;20016;-91
2022/12/29 17:59:27;;;;;;;7.55;1.75;;;6.70;99.90;;;;;;6195077;23;20027;-92
2022/12/29 18:05:57;;;;;;;8.98;1.60;;;6.70;99.90;;;;;;6221247;23;20016;-91
2022/12/29 18:08:28;;;;;;;14.70;1.92;;;6.80;99.90;;;;;;6197545;23;20023;-92
2022/12/29 18:10:57;;;;;;;10.38;1.60;;;6.80;99.90;;;;;;6204455;22;20024;-92
2022/12/29 18:14:10;;;;;;;7.70;1.50;;;6.80;99.90;;;;;;6217909;23;20016;-92
2022/12/29 18:16:36;;;;;;;7.30;1.48;;;6.80;99.90;;;;;;6215211;23;20027;-91
2022/12/29 18:19:04;;;;;;;10.02;1.73;;;6.80;99.90;;;;;;6198350;23;20019;-91
2022/12/29 18:21:49;;;;;;;10.90;1.70;;;6.80;99.90;;;;;;6171258;23;20020;-92
2022/12/29 18:24:15;;;;;;;10.57;2.10;;;6.80;99.90;;;;;;6173875;23;20047;-90
2022/12/29 18:26:47;;;;;;;7.55;1.77;;;6.80;99.90;;;;;;6171641;23;20055;-91
2022/12/29 18:29:22;;;;;;;9.30;2.00;;;6.40;99.90;;;;;;6170878;23;20466;-93
2022/12/29 18:31:49;;;;;;;10.82;1.52;;;6.80;99.90;;;;;;6171792;23;20062;-92
2022/12/29 18:34:19;;;;;;;11.18;2.38;;;6.80;99.90;;;;;;6167699;23;20012;-92
2022/12/29 18:36:58;;;;;;;;;;;;;;;;;;;;;
2022/12/29 18:39:42;;;;;;;;;;;;;;;;;;;;;
2022/12/29 18:43:02;;;;;;;;;;;;;;;;;;;;;
2022/12/29 18:46:14;;;;;;;;;;;;;;;;;;;;;
2022/12/29 18:49:53;;;;;;;;;;;;;;;;;;;;;
2022/12/29 18:52:46;;;;;;;7.22;1.85;;;7.20;99.90;;;;;;6224051;23;20509;-90
2022/12/29 18:55:50;;;;;;;;;;;;;;;;;;;;;
2022/12/29 18:58:29;;;;;;;;;;;;;;;;;;;;;
2022/12/29 19:01:12;;;;;;;;;;;;;;;;;;;;;
2022/12/29 19:07:20;;;;;;;;;;;;;;;;;;;;;
2022/12/29 19:09:58;;;;;;;11.15;2.03;;;6.50;99.90;;;;;;6220276;23;20047;-92
2022/12/29 19:16:43;;;;;;;;;;;;;;;;;;;;;
2022/12/29 19:19:41;;;;;;;10.07;1.83;;;6.30;99.90;;;;;;6217819;23;20082;-92
2022/12/29 19:22:16;;;;;;;10.32;2.05;;;6.50;99.90;;;;;;6169322;23;20028;-93
2022/12/29 19:25:10;;;;;;;;;;;;;;;;;;;;;
2022/12/29 19:31:39;;;;;;;10.38;1.90;;;6.40;99.90;;;;;;6181458;23;20052;-93
2022/12/29 19:34:48;;;;;;;10.23;2.20;;;6.60;99.90;;;;;;6220490;22;20095;-92
2022/12/29 19:37:35;;;;;;;8.52;1.85;;;5.80;99.90;;;;;;6223911;22;20019;-91
2022/12/29 19:40:49;;;;;;;7.90;1.92;;;6.40;99.90;;;;;;6250282;22;20415;-92
2022/12/29 19:43:16;;;;;;;12.00;2.90;;;6.50;99.90;;;;;;6225352;22;20023;-89
2022/12/29 19:45:44;;;;;;;11.70;2.25;;;6.40;99.90;;;;;;6225990;22;20015;-91
2022/12/29 19:48:38;;;;;;;13.05;2.17;;;6.40;99.90;;;;;;6201255;22;20469;-91
2022/12/29 19:51:24;;;;;;;7.15;1.60;;;6.40;99.90;;;;;;6226340;22;20028;-91
2022/12/29 19:53:53;;;;;;;10.20;2.47;;;6.40;99.90;;;;;;6251517;22;20012;-91
2022/12/29 20:00:04;;;;;;;10.18;2.10;;;6.30;99.90;;;;;;6277226;22;20102;-91
2022/12/29 20:03:05;;;;;;;;;;;;;;;;;;;;;
2022/12/29 20:05:47;;;;;;;11.98;2.13;;;5.60;99.90;;;;;;6236942;22;20026;-92
2022/12/29 20:08:59;;;;;;;8.18;2.10;;;6.30;99.90;;;;;;6246168;22;20019;-91
2022/12/29 20:11:40;;;;;;;9.13;2.17;;;6.30;99.90;;;;;;6257738;22;20016;-91
2022/12/29 20:14:55;;;;;;;;;;;;;;;;;;;;;
2022/12/29 20:18:18;;;;;;;;;;;;;;;;;;;;;
2022/12/29 20:20:59;;;;;;;;;;;;;;;;;;;;;
2022/12/29 20:24:14;;;;;;;;;;;;;;;;;;;;;
2022/12/29 20:27:01;;;;;;;;;;;;;;;;;;;;;
2022/12/29 20:29:46;;;;;;;12.30;2.28;;;6.30;99.90;;;;;;6253592;22;20053;-91
2022/12/29 20:32:18;;;;;;;12.00;2.15;;;6.40;99.90;;;;;;6251800;22;20073;-90
2022/12/29 20:35:16;;;;;;;;;;;;;;;;;;;;;
2022/12/29 20:37:46;;;;;;;9.10;1.90;;;5.40;99.90;;;;;;6276226;22;20015;-91
2022/12/29 20:50:59;;;;;;;;;;;;;;;;;;;;;
2022/12/29 20:53:41;;;;;;;;;;;;;;;;;;;;;
2022/12/29 20:56:25;;;;;;;;;;;;;;;;;;;;;
2022/12/29 20:59:10;;;;;;;11.75;2.60;;;6.30;99.90;;;;;;6277360;22;20085;-92
2022/12/29 21:02:25;;;;;;;;;;;;;;;;;;;;;
2022/12/29 21:04:54;;;;;;;7.00;2.22;;;6.20;99.90;;;;;;6277538;22;20069;-91
2022/12/29 21:07:44;;;;;;;;;;;;;;;;;;;;;
2022/12/29 21:10:17;;;;;;;12.70;2.03;;;6.10;99.90;;;;;;6278454;22;20022;-91
2022/12/29 21:16:17;;;;;;;;;;;6.20;99.90;;;;;;6280490;22;20043;-91
2022/12/29 21:19:00;;;;;;;11.48;2.10;;;6.10;99.90;;;;;;6257462;22;19922;-91
2022/12/29 21:22:01;;;;;;;;;;;;;;;;;;;;;
2022/12/29 21:24:37;;;;;;;;;;;;;;;;;;;;;
2022/12/29 21:27:13;;;;;;;9.50;2.55;;;6.30;99.90;;;;;;6233297;23;20020;-90
2022/12/29 21:32:40;;;;;;;;;;;;;;;;;;;;;
2022/12/29 21:35:18;;;;;;;17.08;2.85;;;6.30;99.90;;;;;;6221947;23;20616;-90
2022/12/29 21:38:33;;;;;;;;;;;;;;;;;;;;;
2022/12/29 21:41:16;;;;;;;11.15;2.00;;;6.30;99.90;;;;;;6221600;23;20022;-91
2022/12/29 21:47:15;;;;;;;13.40;3.45;;;6.40;99.90;;;;;;6242397;23;20094;-90
2022/12/29 21:53:58;;;;;;;;;;;;;;;;;;;;;
2022/12/29 21:56:27;;;;;;;14.02;2.33;;;6.70;99.90;;;;;;6234494;23;20011;-93
2022/12/29 22:19:29;;;;;;;11.00;2.38;;;6.30;99.90;;;;;;6221971;23;20027;-92
2022/12/29 22:22:34;;;;;;;14.27;2.13;;;6.40;99.90;;;;;;6195838;23;20078;-93
2022/12/29 22:25:01;;;;;;;10.73;2.40;;;6.40;99.90;;;;;;6201472;22;20043;-92
2022/12/29 22:28:10;;;;;;;12.98;2.55;;;6.40;99.90;;;;;;6250922;22;20027;-91
2022/12/29 22:30:39;;;;;;;8.40;2.15;;;6.40;99.90;;;;;;6226559;22;20015;-92
2022/12/29 22:33:06;;;;;;;11.30;2.58;;;6.20;99.90;;;;;;6251374;22;20425;-91
2022/12/29 22:35:53;;;;;;;9.77;2.92;;;6.40;99.90;;;;;;6226234;22;20015;-91
2022/12/29 22:41:59;;;;;;;11.25;2.30;;;6.40;99.90;;;;;;6278233;22;20579;-91
2022/12/29 22:44:29;;;;;;;8.98;2.47;;;6.40;99.90;;;;;;6251231;22;20020;-92
2022/12/29 22:46:55;;;;;;;15.23;2.70;;;6.40;99.90;;;;;;6227013;22;20031;-91
2022/12/29 22:49:22;;;;;;;11.68;2.15;;;6.30;99.90;;;;;;6226606;22;20023;-91
2022/12/29 22:52:27;;;;;;;13.23;2.15;;;6.20;99.90;;;;;;6227397;22;20011;-92
2022/12/29 22:58:38;;;;;;;10.43;2.20;;;6.10;99.90;;;;;;6279277;22;20019;-91
2022/12/29 23:01:25;;;;;;;9.27;2.15;;;6.20;99.90;;;;;;6251919;22;20019;-92
2022/12/29 23:07:33;;;;;;;10.45;1.98;;;6.00;99.90;;;;;;6278216;22;20590;-91
2022/12/29 23:10:00;;;;;;;11.80;2.08;;;5.90;99.90;;;;;;6249139;22;20513;-93
2022/12/29 23:12:46;;;;;;;14.07;2.35;;;6.00;99.90;;;;;;6251809;22;20012;-91
2022/12/29 23:15:12;;;;;;;12.43;2.10;;;5.90;99.90;;;;;;6201434;22;20018;-92
2022/12/29 23:17:38;;;;;;;16.10;2.55;;;6.00;99.90;;;;;;6226734;22;20390;-93
2022/12/29 23:20:06;;;;;;;13.43;2.33;;;5.90;99.90;;;;;;6227634;22;20015;-91
2022/12/29 23:22:54;;;;;;;6.38;1.55;;;5.90;99.90;;;;;;6230764;22;20095;-91
2022/12/29 23:25:21;;;;;;;9.50;1.90;;;5.90;99.90;;;;;;6224929;22;20020;-92
2022/12/29 23:27:48;;;;;;;9.90;1.95;;;5.90;99.90;;;;;;6253595;22;20599;-93
2022/12/29 23:30:16;;;;;;;8.80;1.92;;;5.90;99.90;;;;;;6228581;22;20390;-92
2022/12/29 23:33:02;;;;;;;10.13;2.40;;;5.80;99.90;;;;;;6203004;22;20015;-92
2022/12/29 23:35:28;;;;;;;12.80;2.03;;;5.90;99.90;;;;;;6252007;22;20019;-92
2022/12/29 23:41:17;;;;;;;7.75;2.03;;;5.70;99.90;;;;;;6279392;22;20066;-91
2022/12/29 23:43:52;;;;;;;9.88;1.90;;;5.80;99.90;;;;;;6279765;22;20050;-92
2022/12/29 23:46:25;;;;;;;19.63;2.50;;;5.60;99.90;;;;;;6252618;22;20020;-92
2022/12/29 23:49:10;;;;;;;10.80;2.03;;;5.60;99.90;;;;;;6230681;22;20020;-92
2022/12/29 23:51:59;;;;;;;11.00;2.03;;;5.60;99.90;;;;;;6284129;22;20016;-90
2022/12/29 23:54:25;;;;;;;10.48;1.73;;;5.60;99.90;;;;;;6259070;22;20460;-90
2022/12/29 23:57:12;;;;;;;12.82;2.53;;;5.60;99.90;;;;;;6262265;22;20016;-90
2022/12/29 23:59:41;;;;;;;7.95;2.00;;;5.50;99.90;;;;;;6236384;22;20016;-91
